Time,TemperatureF,DewpointF,PressureIn,WindDirection,WindDirectionDegrees,WindSpeedMPH,WindSpeedGustMPH,Humidity,HourlyPrecipIn,Conditions,Clouds,dailyrainin,SoftwareType,DateUTC
2013-05-06 00:00:00,52.3,47.6,29.77,ENE,63,21.0,21.0,84,0.00,,,0.00,Wunderground v.1.15,2013-05-06 07:00:00,
2013-05-06 00:10:00,52.2,47.8,29.77,East,82,21.0,21.0,85,0.00,,,0.00,Wunderground v.1.15,2013-05-06 07:10:00,
2013-05-06 00:15:00,51.7,48.0,29.78,East,82,20.0,21.0,87,0.00,,,0.00,Wunderground v.1.15,2013-05-06 07:15:00,
2013-05-06 00:20:00,51.4,48.0,29.78,East,79,18.0,19.0,88,0.00,,,0.00,Wunderground v.1.15,2013-05-06 07:20:00,
2013-05-06 00:25:00,51.2,48.1,29.79,ENE,69,17.0,19.0,89,0.00,,,0.00,Wunderground v.1.15,2013-05-06 07:25:00,
2013-05-06 00:30:00,51.2,48.1,29.78,NE,56,16.0,16.0,89,0.00,,,0.00,Wunderground v.1.15,2013-05-06 07:30:00,
2013-05-06 00:40:00,51.4,48.0,29.78,ENE,76,20.0,22.0,88,0.00,,,0.00,Wunderground v.1.15,2013-05-06 07:40:00,
2013-05-06 00:45:00,51.6,47.9,29.78,ESE,121,19.0,22.0,87,0.00,,,0.00,Wunderground v.1.15,2013-05-06 07:45:00,
2013-05-06 00:50:00,51.8,47.4,29.79,East,98,19.0,19.0,85,0.00,,,0.00,Wunderground v.1.15,2013-05-06 07:50:00,
2013-05-06 00:55:00,52.0,47.6,29.78,ENE,72,20.0,20.0,85,0.00,,,0.00,Wunderground v.1.15,2013-05-06 07:55:00,
2013-05-06 01:00:00,52.1,47.4,29.79,East,89,19.0,27.0,84,0.00,,,0.00,Wunderground v.1.15,2013-05-06 08:00:00,
2013-05-06 01:10:00,52.3,47.6,29.79,ENE,72,18.0,22.0,84,0.00,,,0.00,Wunderground v.1.15,2013-05-06 08:10:00,
2013-05-06 01:20:00,52.2,47.8,29.79,ENE,59,18.0,18.0,85,0.00,,,0.00,Wunderground v.1.15,2013-05-06 08:20:00,
2013-05-06 01:30:00,52.4,48.0,29.78,NE,49,18.0,18.0,85,0.00,,,0.00,Wunderground v.1.15,2013-05-06 08:30:00,
2013-05-06 01:35:00,52.6,47.9,29.78,East,83,18.0,21.0,84,0.00,,,0.00,Wunderground v.1.15,2013-05-06 08:35:00,
2013-05-06 01:40:00,52.8,47.8,29.78,ENE,63,17.0,17.0,83,0.00,,,0.00,Wunderground v.1.15,2013-05-06 08:40:00,
2013-05-06 01:45:00,52.9,47.9,29.78,ENE,75,16.0,17.0,83,0.00,,,0.00,Wunderground v.1.15,2013-05-06 08:45:00,
2013-05-06 01:50:00,52.9,47.6,29.79,ENE,71,15.0,15.0,82,0.00,,,0.00,Wunderground v.1.15,2013-05-06 08:50:00,
2013-05-06 01:55:00,52.9,47.6,29.79,East,84,14.0,15.0,82,0.00,,,0.00,Wunderground v.1.15,2013-05-06 08:55:00,
2013-05-06 02:00:00,52.9,47.6,29.79,ENE,73,15.0,15.0,82,0.00,,,0.00,Wunderground v.1.15,2013-05-06 09:00:00,
2013-05-06 02:10:00,53.1,47.4,29.79,NNE,32,13.0,13.0,81,0.00,,,0.00,Wunderground v.1.15,2013-05-06 09:10:00,
2013-05-06 02:15:00,53.1,47.7,29.79,ENE,65,12.0,13.0,82,0.00,,,0.00,Wunderground v.1.15,2013-05-06 09:15:00,
2013-05-06 02:20:00,53.2,47.5,29.79,ENE,74,11.0,13.0,81,0.00,,,0.00,Wunderground v.1.15,2013-05-06 09:20:00,
2013-05-06 02:30:00,53.2,47.5,29.78,ENE,61,11.0,16.0,81,0.00,,,0.00,Wunderground v.1.15,2013-05-06 09:30:00,
2013-05-06 02:35:00,53.3,47.6,29.78,ESE,111,11.0,16.0,81,0.00,,,0.00,Wunderground v.1.15,2013-05-06 09:35:00,
2013-05-06 02:40:00,53.3,47.6,29.79,ENE,70,12.0,12.0,81,0.00,,,0.00,Wunderground v.1.15,2013-05-06 09:40:00,
2013-05-06 02:50:00,53.2,47.5,29.79,ENE,61,11.0,11.0,81,0.00,,,0.00,Wunderground v.1.15,2013-05-06 09:50:00,
2013-05-06 02:55:00,53.2,47.8,29.79,ESE,120,12.0,13.0,82,0.00,,,0.00,Wunderground v.1.15,2013-05-06 09:55:00,
2013-05-06 03:00:00,52.8,47.8,29.79,East,99,14.0,14.0,83,0.00,,,0.00,Wunderground v.1.15,2013-05-06 10:00:00,
2013-05-06 03:10:00,52.5,48.1,29.79,NNE,25,10.0,10.0,85,0.00,,,0.00,Wunderground v.1.15,2013-05-06 10:10:00,
2013-05-06 03:15:00,52.5,48.1,29.79,East,85,10.0,10.0,85,0.00,,,0.00,Wunderground v.1.15,2013-05-06 10:15:00,
2013-05-06 03:20:00,52.2,48.1,29.79,ENE,60,10.0,10.0,86,0.00,,,0.00,Wunderground v.1.15,2013-05-06 10:20:00,
2013-05-06 03:25:00,52.0,48.3,29.79,ENE,70,7.0,10.0,87,0.00,,,0.00,Wunderground v.1.15,2013-05-06 10:25:00,
2013-05-06 03:35:00,51.9,48.2,29.79,East,98,7.0,11.0,87,0.00,,,0.00,Wunderground v.1.15,2013-05-06 10:35:00,
2013-05-06 03:45:00,52.0,47.9,29.79,East,96,8.0,8.0,86,0.00,,,0.00,Wunderground v.1.15,2013-05-06 10:45:00,
2013-05-06 03:50:00,52.2,48.1,29.79,ESE,106,7.0,9.0,86,0.00,,,0.00,Wunderground v.1.15,2013-05-06 10:50:00,
2013-05-06 03:55:00,52.4,48.0,29.79,East,90,6.0,9.0,85,0.00,,,0.00,Wunderground v.1.15,2013-05-06 10:55:00,
2013-05-06 04:00:00,52.4,48.0,29.79,East,98,7.0,11.0,85,0.00,,,0.00,Wunderground v.1.15,2013-05-06 11:00:00,
2013-05-06 04:10:00,52.6,47.9,29.79,East,82,7.0,7.0,84,0.00,,,0.00,Wunderground v.1.15,2013-05-06 11:10:00,
2013-05-06 04:20:00,52.7,48.3,29.79,East,86,6.0,7.0,85,0.00,,,0.00,Wunderground v.1.15,2013-05-06 11:20:00,
2013-05-06 04:25:00,52.5,48.4,29.79,ESE,103,6.0,7.0,86,0.00,,,0.00,Wunderground v.1.15,2013-05-06 11:25:00,
2013-05-06 04:30:00,52.3,48.5,29.79,ENE,67,6.0,12.0,87,0.00,,,0.00,Wunderground v.1.15,2013-05-06 11:30:00,
2013-05-06 04:35:00,52.2,48.8,29.80,ENE,63,7.0,12.0,88,0.00,,,0.00,Wunderground v.1.15,2013-05-06 11:35:00,
2013-05-06 04:40:00,52.2,48.8,29.80,ENE,61,8.0,8.0,88,0.00,,,0.00,Wunderground v.1.15,2013-05-06 11:40:00,
2013-05-06 04:45:00,52.2,48.4,29.79,NE,52,7.0,8.0,87,0.00,,,0.00,Wunderground v.1.15,2013-05-06 11:45:00,
2013-05-06 04:50:00,52.3,48.5,29.79,ESE,111,6.0,12.0,87,0.00,,,0.00,Wunderground v.1.15,2013-05-06 11:50:00,
2013-05-06 04:55:00,52.2,48.4,29.79,East,101,6.0,12.0,87,0.00,,,0.00,Wunderground v.1.15,2013-05-06 11:55:00,
2013-05-06 05:05:00,52.4,48.3,29.79,SSE,152,10.0,12.0,86,0.00,,,0.00,Wunderground v.1.15,2013-05-06 12:05:00,
2013-05-06 05:10:00,52.2,48.1,29.79,SE,145,10.0,10.0,86,0.00,,,0.00,Wunderground v.1.15,2013-05-06 12:10:00,
2013-05-06 05:15:00,52.0,48.6,29.79,ENE,70,7.0,10.0,88,0.00,,,0.00,Wunderground v.1.15,2013-05-06 12:15:00,
2013-05-06 05:20:00,51.8,48.4,29.79,ESE,103,4.0,4.0,88,0.00,,,0.00,Wunderground v.1.15,2013-05-06 12:20:00,
2013-05-06 05:25:00,51.8,48.4,29.79,ESE,113,3.0,5.0,88,0.00,,,0.01,Wunderground v.1.15,2013-05-06 12:25:00,
2013-05-06 05:30:00,52.0,48.6,29.80,East,97,4.0,22.0,88,0.00,,,0.01,Wunderground v.1.15,2013-05-06 12:30:00,
2013-05-06 05:35:00,51.5,48.1,29.80,SSE,147,11.0,22.0,88,0.06,,,0.02,Wunderground v.1.15,2013-05-06 12:35:00,
2013-05-06 05:40:00,51.3,47.9,29.79,SW,236,12.0,12.0,88,0.06,,,0.02,Wunderground v.1.15,2013-05-06 12:40:00,
2013-05-06 05:50:00,51.2,47.8,29.79,East,92,5.0,6.0,88,0.00,,,0.02,Wunderground v.1.15,2013-05-06 12:50:00,
2013-05-06 05:55:00,51.0,47.6,29.79,ENE,63,5.0,6.0,88,0.00,,,0.02,Wunderground v.1.15,2013-05-06 12:55:00,
2013-05-06 06:00:00,51.0,47.3,29.79,East,89,5.0,9.0,87,0.00,,,0.02,Wunderground v.1.15,2013-05-06 13:00:00,
2013-05-06 06:10:00,51.2,47.5,29.80,ENE,70,6.0,6.0,87,0.00,,,0.02,Wunderground v.1.15,2013-05-06 13:10:00,
2013-05-06 06:15:00,51.5,47.1,29.80,East,98,5.0,7.0,85,0.00,,,0.02,Wunderground v.1.15,2013-05-06 13:15:00,
2013-05-06 06:20:00,51.9,47.2,29.80,ENE,77,5.0,5.0,84,0.00,,,0.02,Wunderground v.1.15,2013-05-06 13:20:00,
2013-05-06 06:30:00,51.4,47.4,29.80,East,94,3.0,5.0,86,0.00,,,0.02,Wunderground v.1.15,2013-05-06 13:30:00,
2013-05-06 06:35:00,51.4,47.4,29.80,East,79,4.0,5.0,86,0.00,,,0.02,Wunderground v.1.15,2013-05-06 13:35:00,
2013-05-06 06:40:00,51.6,47.2,29.81,NE,50,4.0,4.0,85,0.00,,,0.02,Wunderground v.1.15,2013-05-06 13:40:00,
2013-05-06 06:45:00,51.5,47.1,29.81,East,96,2.0,4.0,85,0.00,,,0.02,Wunderground v.1.15,2013-05-06 13:45:00,
2013-05-06 06:50:00,51.7,47.3,29.81,ENE,63,2.0,2.0,85,0.00,,,0.02,Wunderground v.1.15,2013-05-06 13:50:00,
2013-05-06 06:55:00,51.6,47.2,29.81,ENE,70,3.0,3.0,85,0.00,,,0.02,Wunderground v.1.15,2013-05-06 13:55:00,
2013-05-06 07:00:00,51.4,47.4,29.81,SE,139,3.0,3.0,86,0.00,,,0.02,Wunderground v.1.15,2013-05-06 14:00:00,
2013-05-06 07:10:00,51.5,47.5,29.81,ESE,117,3.0,3.0,86,0.00,,,0.02,Wunderground v.1.15,2013-05-06 14:10:00,
2013-05-06 07:20:00,52.0,47.0,29.82,East,98,5.0,5.0,83,0.00,,,0.02,Wunderground v.1.15,2013-05-06 14:20:00,
2013-05-06 07:25:00,52.6,46.9,29.82,ENE,61,7.0,7.0,81,0.00,,,0.02,Wunderground v.1.15,2013-05-06 14:25:00,
2013-05-06 07:30:00,52.7,46.7,29.82,ENE,77,6.0,6.0,80,0.00,,,0.02,Wunderground v.1.15,2013-05-06 14:30:00,
2013-05-06 07:35:00,52.8,46.8,29.82,East,80,6.0,6.0,80,0.00,,,0.02,Wunderground v.1.15,2013-05-06 14:35:00,
2013-05-06 07:40:00,52.7,47.0,29.82,East,97,5.0,7.0,81,0.00,,,0.02,Wunderground v.1.15,2013-05-06 14:40:00,
2013-05-06 07:45:00,52.2,47.5,29.82,NE,53,5.0,7.0,84,0.00,,,0.02,Wunderground v.1.15,2013-05-06 14:45:00,
2013-05-06 07:50:00,51.9,47.8,29.83,ESE,105,5.0,7.0,86,0.00,,,0.02,Wunderground v.1.15,2013-05-06 14:50:00,
2013-05-06 07:55:00,52.0,47.9,29.82,East,98,6.0,8.0,86,0.00,,,0.02,Wunderground v.1.15,2013-05-06 14:55:00,
2013-05-06 08:00:00,52.0,47.6,29.83,ENE,74,6.0,6.0,85,0.00,,,0.02,Wunderground v.1.15,2013-05-06 15:00:00,
2013-05-06 08:10:00,52.2,47.5,29.82,NE,36,4.0,4.0,84,0.00,,,0.02,Wunderground v.1.15,2013-05-06 15:10:00,
2013-05-06 08:15:00,52.4,47.4,29.82,ENE,67,6.0,16.0,83,0.00,,,0.02,Wunderground v.1.15,2013-05-06 15:15:00,
2013-05-06 08:20:00,52.4,47.4,29.83,East,86,8.0,9.0,83,0.00,,,0.02,Wunderground v.1.15,2013-05-06 15:20:00,
2013-05-06 08:25:00,52.6,47.6,29.83,East,89,9.0,9.0,83,0.00,,,0.02,Wunderground v.1.15,2013-05-06 15:25:00,
2013-05-06 08:30:00,53.2,47.5,29.83,ENE,75,8.0,8.0,81,0.00,,,0.02,Wunderground v.1.15,2013-05-06 15:30:00,
2013-05-06 08:35:00,53.5,47.5,29.83,East,94,7.0,8.0,80,0.00,,,0.02,Wunderground v.1.15,2013-05-06 15:35:00,
2013-05-06 08:40:00,53.6,47.6,29.83,NE,53,8.0,11.0,80,0.00,,,0.02,Wunderground v.1.15,2013-05-06 15:40:00,
2013-05-06 08:50:00,53.9,46.9,29.83,ENE,62,7.0,7.0,77,0.00,,,0.02,Wunderground v.1.15,2013-05-06 15:50:00,
2013-05-06 09:00:00,54.4,46.3,29.83,East,91,8.0,8.0,74,0.00,,,0.02,Wunderground v.1.15,2013-05-06 16:00:00,
2013-05-06 09:10:00,55.0,46.9,29.84,East,84,5.0,14.0,74,0.00,,,0.02,Wunderground v.1.15,2013-05-06 16:10:00,
2013-05-06 09:15:00,55.3,46.8,29.84,East,84,7.0,14.0,73,0.00,,,0.02,Wunderground v.1.15,2013-05-06 16:15:00,
2013-05-06 09:20:00,55.2,46.3,29.84,East,80,7.0,7.0,72,0.00,,,0.02,Wunderground v.1.15,2013-05-06 16:20:00,
2013-05-06 09:30:00,55.1,45.5,29.84,ENE,71,8.0,8.0,70,0.00,,,0.02,Wunderground v.1.15,2013-05-06 16:30:00,
2013-05-06 09:35:00,55.1,45.9,29.84,ENE,74,9.0,9.0,71,0.00,,,0.02,Wunderground v.1.15,2013-05-06 16:35:00,
2013-05-06 09:40:00,55.4,45.4,29.84,ENE,75,10.0,10.0,69,0.00,,,0.02,Wunderground v.1.15,2013-05-06 16:40:00,
2013-05-06 09:45:00,55.9,45.5,29.84,NNE,15,9.0,10.0,68,0.00,,,0.02,Wunderground v.1.15,2013-05-06 16:45:00,
2013-05-06 09:50:00,55.9,45.1,29.84,ENE,61,9.0,9.0,67,0.00,,,0.02,Wunderground v.1.15,2013-05-06 16:50:00,
2013-05-06 09:55:00,55.8,45.4,29.84,East,92,10.0,10.0,68,0.00,,,0.02,Wunderground v.1.15,2013-05-06 16:55:00,
2013-05-06 10:00:00,55.8,45.4,29.84,East,98,9.0,9.0,68,0.00,,,0.02,Wunderground v.1.15,2013-05-06 17:00:00,
2013-05-06 10:10:00,56.3,45.9,29.85,ENE,74,5.0,12.0,68,0.00,,,0.02,Wunderground v.1.15,2013-05-06 17:10:00,
2013-05-06 10:15:00,56.6,46.2,29.85,East,100,6.0,12.0,68,0.00,,,0.02,Wunderground v.1.15,2013-05-06 17:15:00,
2013-05-06 10:20:00,56.9,46.1,29.85,NE,54,5.0,5.0,67,0.00,,,0.02,Wunderground v.1.15,2013-05-06 17:20:00,
2013-05-06 10:25:00,57.4,46.1,29.86,ESE,109,6.0,7.0,66,0.00,,,0.02,Wunderground v.1.15,2013-05-06 17:25:00,
2013-05-06 10:30:00,57.5,46.2,29.85,ENE,58,7.0,8.0,66,0.00,,,0.02,Wunderground v.1.15,2013-05-06 17:30:00,
2013-05-06 10:35:00,57.6,45.9,29.86,ENE,59,7.0,8.0,65,0.00,,,0.02,Wunderground v.1.15,2013-05-06 17:35:00,
2013-05-06 10:40:00,57.5,45.8,29.86,NE,56,7.0,7.0,65,0.00,,,0.02,Wunderground v.1.15,2013-05-06 17:40:00,
2013-05-06 10:45:00,57.3,45.6,29.86,East,79,7.0,10.0,65,0.00,,,0.02,Wunderground v.1.15,2013-05-06 17:45:00,
2013-05-06 10:55:00,57.5,46.2,29.86,ENE,58,6.0,6.0,66,0.00,,,0.02,Wunderground v.1.15,2013-05-06 17:55:00,
2013-05-06 11:00:00,57.4,45.7,29.86,ESE,113,7.0,8.0,65,0.00,,,0.02,Wunderground v.1.15,2013-05-06 18:00:00,
2013-05-06 11:15:00,57.1,45.8,29.86,ESE,114,10.0,10.0,66,0.00,,,0.02,Wunderground v.1.15,2013-05-06 18:15:00,
2013-05-06 11:20:00,57.0,46.1,29.87,East,85,9.0,10.0,67,0.00,,,0.02,Wunderground v.1.15,2013-05-06 18:20:00,
2013-05-06 11:25:00,57.0,46.5,29.86,SE,134,8.0,9.0,68,0.00,,,0.02,Wunderground v.1.15,2013-05-06 18:25:00,
2013-05-06 11:30:00,58.0,47.5,29.87,SSE,155,8.0,9.0,68,0.00,,,0.02,Wunderground v.1.15,2013-05-06 18:30:00,
2013-05-06 11:35:00,59.0,47.7,29.87,ENE,68,7.0,7.0,66,0.00,,,0.02,Wunderground v.1.15,2013-05-06 18:35:00,
2013-05-06 11:45:00,58.0,46.7,29.87,SE,125,8.0,8.0,66,0.00,,,0.02,Wunderground v.1.15,2013-05-06 18:45:00,
2013-05-06 11:50:00,57.6,47.1,29.87,East,80,9.0,13.0,68,0.00,,,0.02,Wunderground v.1.15,2013-05-06 18:50:00,
2013-05-06 11:55:00,57.4,46.5,29.87,ENE,61,10.0,10.0,67,0.00,,,0.02,Wunderground v.1.15,2013-05-06 18:55:00,
2013-05-06 12:00:00,57.7,46.8,29.87,East,87,11.0,11.0,67,0.00,,,0.02,Wunderground v.1.15,2013-05-06 19:00:00,
2013-05-06 12:10:00,58.6,47.3,29.87,ENE,77,8.0,8.0,66,0.00,,,0.02,Wunderground v.1.15,2013-05-06 19:10:00,
2013-05-06 12:15:00,58.8,47.5,29.87,ENE,59,8.0,8.0,66,0.00,,,0.02,Wunderground v.1.15,2013-05-06 19:15:00,
2013-05-06 12:20:00,58.8,47.1,29.87,East,91,9.0,18.0,65,0.00,,,0.02,Wunderground v.1.15,2013-05-06 19:20:00,
2013-05-06 12:30:00,57.4,46.9,29.87,SE,129,14.0,14.0,68,0.00,,,0.02,Wunderground v.1.15,2013-05-06 19:30:00,
2013-05-06 12:35:00,57.7,47.6,29.87,ENE,70,13.0,14.0,69,0.00,,,0.02,Wunderground v.1.15,2013-05-06 19:35:00,
2013-05-06 12:40:00,59.0,48.8,29.87,ESE,116,9.0,9.0,69,0.00,,,0.02,Wunderground v.1.15,2013-05-06 19:40:00,
2013-05-06 12:45:00,59.6,47.8,29.87,East,94,6.0,9.0,65,0.00,,,0.02,Wunderground v.1.15,2013-05-06 19:45:00,
2013-05-06 12:50:00,59.4,47.2,29.87,East,86,6.0,6.0,64,0.00,,,0.02,Wunderground v.1.15,2013-05-06 19:50:00,
2013-05-06 12:55:00,59.5,47.3,29.87,ESE,103,6.0,6.0,64,0.00,,,0.02,Wunderground v.1.15,2013-05-06 19:55:00,
2013-05-06 13:00:00,59.1,46.9,29.87,East,94,7.0,13.0,64,0.00,,,0.02,Wunderground v.1.15,2013-05-06 20:00:00,
2013-05-06 13:10:00,58.8,47.1,29.87,NNE,15,9.0,9.0,65,0.00,,,0.02,Wunderground v.1.15,2013-05-06 20:10:00,
2013-05-06 13:15:00,58.7,46.5,29.87,ENE,78,7.0,9.0,64,0.00,,,0.02,Wunderground v.1.15,2013-05-06 20:15:00,
2013-05-06 13:20:00,58.7,47.0,29.87,East,85,7.0,8.0,65,0.00,,,0.02,Wunderground v.1.15,2013-05-06 20:20:00,
2013-05-06 13:25:00,58.4,46.7,29.87,ENE,63,9.0,13.0,65,0.00,,,0.02,Wunderground v.1.15,2013-05-06 20:25:00,
2013-05-06 13:30:00,58.6,47.3,29.87,East,99,9.0,11.0,66,0.00,,,0.02,Wunderground v.1.15,2013-05-06 20:30:00,
2013-05-06 13:35:00,58.7,47.4,29.87,East,96,8.0,11.0,66,0.00,,,0.02,Wunderground v.1.15,2013-05-06 20:35:00,
2013-05-06 13:45:00,58.4,47.5,29.87,ENE,58,11.0,11.0,67,0.00,,,0.02,Wunderground v.1.15,2013-05-06 20:45:00,
2013-05-06 13:50:00,58.5,48.0,29.87,ENE,63,10.0,10.0,68,0.00,,,0.02,Wunderground v.1.15,2013-05-06 20:50:00,
2013-05-06 13:55:00,58.4,47.5,29.88,ENE,58,9.0,23.0,67,0.00,,,0.02,Wunderground v.1.15,2013-05-06 20:55:00,
2013-05-06 14:00:00,58.1,47.6,29.88,ESE,114,10.0,11.0,68,0.00,,,0.02,Wunderground v.1.15,2013-05-06 21:00:00,
2013-05-06 14:10:00,58.6,47.7,29.87,ENE,76,9.0,9.0,67,0.00,,,0.02,Wunderground v.1.15,2013-05-06 21:10:00,
2013-05-06 14:15:00,58.7,47.0,29.87,ENE,74,9.0,9.0,65,0.00,,,0.02,Wunderground v.1.15,2013-05-06 21:15:00,
2013-05-06 14:20:00,58.6,47.7,29.87,ENE,65,8.0,10.0,67,0.00,,,0.02,Wunderground v.1.15,2013-05-06 21:20:00,
2013-05-06 14:25:00,59.0,47.7,29.87,East,89,8.0,10.0,66,0.00,,,0.02,Wunderground v.1.15,2013-05-06 21:25:00,
2013-05-06 14:35:00,59.1,47.7,29.87,East,94,8.0,12.0,66,0.00,,,0.02,Wunderground v.1.15,2013-05-06 21:35:00,
2013-05-06 14:40:00,58.9,47.2,29.87,ENE,68,9.0,14.0,65,0.00,,,0.02,Wunderground v.1.15,2013-05-06 21:40:00,
2013-05-06 14:45:00,58.7,47.0,29.87,NE,47,11.0,14.0,65,0.00,,,0.02,Wunderground v.1.15,2013-05-06 21:45:00,
2013-05-06 14:50:00,59.5,47.3,29.87,NNE,23,10.0,10.0,64,0.00,,,0.02,Wunderground v.1.15,2013-05-06 21:50:00,
2013-05-06 14:55:00,59.8,47.6,29.87,East,79,8.0,15.0,64,0.00,,,0.02,Wunderground v.1.15,2013-05-06 21:55:00,
2013-05-06 15:00:00,59.7,47.5,29.87,ENE,61,9.0,10.0,64,0.00,,,0.02,Wunderground v.1.15,2013-05-06 22:00:00,
2013-05-06 15:10:00,59.8,47.6,29.87,NE,47,8.0,15.0,64,0.00,,,0.02,Wunderground v.1.15,2013-05-06 22:10:00,
2013-05-06 15:15:00,59.4,47.6,29.87,East,101,9.0,15.0,65,0.00,,,0.02,Wunderground v.1.15,2013-05-06 22:15:00,
2013-05-06 15:20:00,59.4,48.0,29.87,ESE,105,10.0,10.0,66,0.00,,,0.02,Wunderground v.1.15,2013-05-06 22:20:00,
2013-05-06 15:25:00,59.1,46.9,29.86,East,89,9.0,10.0,64,0.00,,,0.02,Wunderground v.1.15,2013-05-06 22:25:00,
2013-05-06 15:35:00,59.2,47.8,29.86,ENE,71,10.0,18.0,66,0.00,,,0.02,Wunderground v.1.15,2013-05-06 22:35:00,
2013-05-06 15:40:00,59.0,47.7,29.86,ENE,72,9.0,13.0,66,0.00,,,0.02,Wunderground v.1.15,2013-05-06 22:40:00,
2013-05-06 15:45:00,58.7,47.0,29.86,ENE,62,10.0,13.0,65,0.00,,,0.02,Wunderground v.1.15,2013-05-06 22:45:00,
2013-05-06 15:55:00,58.7,47.0,29.86,NE,53,9.0,12.0,65,0.00,,,0.02,Wunderground v.1.15,2013-05-06 22:55:00,
2013-05-06 16:00:00,58.4,47.1,29.86,ENE,72,10.0,19.0,66,0.00,,,0.02,Wunderground v.1.15,2013-05-06 23:00:00,
2013-05-06 16:10:00,58.4,47.1,29.86,East,79,10.0,14.0,66,0.00,,,0.02,Wunderground v.1.15,2013-05-06 23:10:00,
2013-05-06 16:15:00,58.9,47.2,29.86,ENE,76,9.0,14.0,65,0.00,,,0.02,Wunderground v.1.15,2013-05-06 23:15:00,
2013-05-06 16:20:00,58.9,47.2,29.86,East,82,9.0,11.0,65,0.00,,,0.02,Wunderground v.1.15,2013-05-06 23:20:00,
2013-05-06 16:25:00,59.0,46.8,29.86,ESE,122,9.0,11.0,64,0.00,,,0.02,Wunderground v.1.15,2013-05-06 23:25:00,
2013-05-06 16:30:00,58.8,46.6,29.86,ENE,63,9.0,9.0,64,0.00,,,0.02,Wunderground v.1.15,2013-05-06 23:30:00,
2013-05-06 16:40:00,58.8,46.6,29.86,ENE,59,9.0,9.0,64,0.00,,,0.02,Wunderground v.1.15,2013-05-06 23:40:00,
2013-05-06 16:45:00,58.7,46.5,29.85,NE,43,8.0,9.0,64,0.00,,,0.02,Wunderground v.1.15,2013-05-06 23:45:00,
2013-05-06 16:50:00,59.1,46.5,29.85,ESE,107,7.0,7.0,63,0.00,,,0.02,Wunderground v.1.15,2013-05-06 23:50:00,
2013-05-06 16:55:00,59.7,47.1,29.86,NE,56,7.0,7.0,63,0.00,,,0.02,Wunderground v.1.15,2013-05-06 23:55:00,
2013-05-06 17:00:00,60.1,47.0,29.85,ENE,70,9.0,9.0,62,0.00,,,0.02,Wunderground v.1.15,2013-05-07 00:00:00,
2013-05-06 17:10:00,60.4,47.3,29.85,East,99,11.0,12.0,62,0.00,,,0.02,Wunderground v.1.15,2013-05-07 00:10:00,
2013-05-06 17:15:00,60.3,47.6,29.86,ENE,77,11.0,12.0,63,0.00,,,0.02,Wunderground v.1.15,2013-05-07 00:15:00,
2013-05-06 17:25:00,59.8,48.0,29.86,NE,37,10.0,11.0,65,0.00,,,0.02,Wunderground v.1.15,2013-05-07 00:25:00,
2013-05-06 17:30:00,59.6,47.4,29.86,East,81,10.0,10.0,64,0.00,,,0.02,Wunderground v.1.15,2013-05-07 00:30:00,
2013-05-06 17:35:00,59.4,47.2,29.86,ENE,73,9.0,11.0,64,0.00,,,0.02,Wunderground v.1.15,2013-05-07 00:35:00,
2013-05-06 17:40:00,59.4,47.2,29.86,ESE,108,9.0,9.0,64,0.00,,,0.02,Wunderground v.1.15,2013-05-07 00:40:00,
2013-05-06 17:45:00,59.8,48.4,29.86,ENE,57,9.0,9.0,66,0.00,,,0.02,Wunderground v.1.15,2013-05-07 00:45:00,
2013-05-06 17:50:00,59.7,47.9,29.86,East,79,9.0,9.0,65,0.00,,,0.02,Wunderground v.1.15,2013-05-07 00:50:00,
2013-05-06 17:55:00,59.3,47.1,29.86,NE,56,9.0,9.0,64,0.00,,,0.02,Wunderground v.1.15,2013-05-07 00:55:00,
2013-05-06 18:00:00,59.0,47.2,29.86,ESE,117,8.0,8.0,65,0.00,,,0.02,Wunderground v.1.15,2013-05-07 01:00:00,
2013-05-06 18:10:00,58.1,47.2,29.86,East,88,6.0,10.0,67,0.00,,,0.02,Wunderground v.1.15,2013-05-07 01:10:00,
2013-05-06 18:15:00,57.6,47.1,29.86,East,97,7.0,10.0,68,0.00,,,0.02,Wunderground v.1.15,2013-05-07 01:15:00,
2013-05-06 18:20:00,57.4,47.3,29.86,ESE,103,8.0,8.0,69,0.00,,,0.02,Wunderground v.1.15,2013-05-07 01:20:00,
2013-05-06 18:25:00,57.4,46.9,29.86,East,97,7.0,8.0,68,0.00,,,0.02,Wunderground v.1.15,2013-05-07 01:25:00,
2013-05-06 18:30:00,57.4,46.5,29.86,East,83,6.0,6.0,67,0.00,,,0.02,Wunderground v.1.15,2013-05-07 01:30:00,
2013-05-06 18:35:00,57.2,46.7,29.86,ESE,108,5.0,6.0,68,0.00,,,0.02,Wunderground v.1.15,2013-05-07 01:35:00,
2013-05-06 18:45:00,57.1,46.6,29.86,ENE,75,4.0,5.0,68,0.00,,,0.02,Wunderground v.1.15,2013-05-07 01:45:00,
2013-05-06 18:50:00,57.1,47.0,29.87,ENE,75,5.0,5.0,69,0.00,,,0.02,Wunderground v.1.15,2013-05-07 01:50:00,
2013-05-06 18:55:00,57.1,46.6,29.87,ENE,76,5.0,9.0,68,0.00,,,0.02,Wunderground v.1.15,2013-05-07 01:55:00,
2013-05-06 19:00:00,57.0,46.5,29.87,NE,49,5.0,5.0,68,0.00,,,0.02,Wunderground v.1.15,2013-05-07 02:00:00,
2013-05-06 19:10:00,56.9,46.8,29.87,ENE,63,3.0,3.0,69,0.00,,,0.02,Wunderground v.1.15,2013-05-07 02:10:00,
2013-05-06 19:20:00,56.7,47.0,29.87,East,91,5.0,6.0,70,0.00,,,0.02,Wunderground v.1.15,2013-05-07 02:20:00,
2013-05-06 19:25:00,56.5,46.8,29.87,ENE,66,4.0,6.0,70,0.00,,,0.02,Wunderground v.1.15,2013-05-07 02:25:00,
2013-05-06 19:30:00,56.5,46.8,29.87,ESE,107,3.0,8.0,70,0.00,,,0.02,Wunderground v.1.15,2013-05-07 02:30:00,
2013-05-06 19:35:00,56.2,46.9,29.87,East,79,5.0,8.0,71,0.00,,,0.02,Wunderground v.1.15,2013-05-07 02:35:00,
2013-05-06 19:40:00,56.1,46.4,29.88,East,82,7.0,7.0,70,0.00,,,0.02,Wunderground v.1.15,2013-05-07 02:40:00,
2013-05-06 19:45:00,56.1,46.8,29.88,East,89,6.0,8.0,71,0.00,,,0.02,Wunderground v.1.15,2013-05-07 02:45:00,
2013-05-06 19:50:00,56.1,46.4,29.88,NE,44,5.0,5.0,70,0.00,,,0.02,Wunderground v.1.15,2013-05-07 02:50:00,
2013-05-06 20:00:00,55.8,46.5,29.88,ENE,70,6.0,6.0,71,0.00,,,0.02,Wunderground v.1.15,2013-05-07 03:00:00,
2013-05-06 20:10:00,55.7,46.4,29.88,ENE,68,6.0,6.0,71,0.00,,,0.02,Wunderground v.1.15,2013-05-07 03:10:00,
2013-05-06 20:15:00,55.7,46.4,29.88,East,79,5.0,6.0,71,0.00,,,0.02,Wunderground v.1.15,2013-05-07 03:15:00,
2013-05-06 20:20:00,55.6,46.3,29.89,East,79,6.0,6.0,71,0.00,,,0.02,Wunderground v.1.15,2013-05-07 03:20:00,
2013-05-06 20:25:00,55.6,46.3,29.89,East,89,5.0,6.0,71,0.00,,,0.02,Wunderground v.1.15,2013-05-07 03:25:00,
2013-05-06 20:35:00,55.6,46.3,29.90,NNW,342,3.0,3.0,71,0.00,,,0.02,Wunderground v.1.15,2013-05-07 03:35:00,
2013-05-06 20:40:00,55.6,46.7,29.90,NNW,332,3.0,4.0,72,0.00,,,0.02,Wunderground v.1.15,2013-05-07 03:40:00,
2013-05-06 20:45:00,55.6,46.7,29.90,ENE,70,4.0,7.0,72,0.00,,,0.02,Wunderground v.1.15,2013-05-07 03:45:00,
2013-05-06 20:50:00,55.5,46.6,29.90,East,83,3.0,3.0,72,0.00,,,0.02,Wunderground v.1.15,2013-05-07 03:50:00,
2013-05-06 20:55:00,55.4,46.5,29.90,NE,53,3.0,3.0,72,0.00,,,0.02,Wunderground v.1.15,2013-05-07 03:55:00,
2013-05-06 21:00:00,55.4,46.5,29.90,ENE,66,3.0,7.0,72,0.00,,,0.02,Wunderground v.1.15,2013-05-07 04:00:00,
2013-05-06 21:05:00,55.4,46.5,29.90,East,91,3.0,7.0,72,0.00,,,0.02,Wunderground v.1.15,2013-05-07 04:05:00,
2013-05-06 21:10:00,55.4,46.9,29.91,ENE,70,4.0,4.0,73,0.00,,,0.02,Wunderground v.1.15,2013-05-07 04:10:00,
2013-05-06 21:15:00,55.3,46.4,29.91,WSW,244,2.0,4.0,72,0.00,,,0.02,Wunderground v.1.15,2013-05-07 04:15:00,
2013-05-06 21:20:00,55.3,46.8,29.91,ENE,67,1.0,1.0,73,0.00,,,0.02,Wunderground v.1.15,2013-05-07 04:20:00,
2013-05-06 21:25:00,55.3,46.8,29.92,ESE,115,1.0,4.0,73,0.00,,,0.02,Wunderground v.1.15,2013-05-07 04:25:00,
2013-05-06 21:30:00,55.3,46.8,29.92,SE,145,2.0,2.0,73,0.00,,,0.02,Wunderground v.1.15,2013-05-07 04:30:00,
2013-05-06 21:35:00,55.3,46.8,29.92,ESE,116,2.0,5.0,73,0.00,,,0.02,Wunderground v.1.15,2013-05-07 04:35:00,
2013-05-06 21:45:00,55.3,47.2,29.92,East,81,3.0,3.0,74,0.00,,,0.02,Wunderground v.1.15,2013-05-07 04:45:00,
2013-05-06 21:50:00,55.3,47.2,29.92,SSW,201,2.0,2.0,74,0.00,,,0.02,Wunderground v.1.15,2013-05-07 04:50:00,
2013-05-06 22:00:00,55.3,46.8,29.93,East,101,3.0,3.0,73,0.00,,,0.02,Wunderground v.1.15,2013-05-07 05:00:00,
2013-05-06 22:10:00,55.3,47.2,29.93,NE,41,3.0,3.0,74,0.00,,,0.02,Wunderground v.1.15,2013-05-07 05:10:00,
2013-05-06 22:15:00,55.3,47.2,29.93,East,79,3.0,7.0,74,0.00,,,0.02,Wunderground v.1.15,2013-05-07 05:15:00,
2013-05-06 22:25:00,55.3,47.2,29.93,ESE,118,5.0,7.0,74,0.00,,,0.02,Wunderground v.1.15,2013-05-07 05:25:00,
2013-05-06 22:30:00,55.2,47.1,29.94,East,85,5.0,6.0,74,0.00,,,0.02,Wunderground v.1.15,2013-05-07 05:30:00,
2013-05-06 22:35:00,55.2,47.1,29.94,ENE,70,4.0,6.0,74,0.00,,,0.02,Wunderground v.1.15,2013-05-07 05:35:00,
2013-05-06 22:40:00,55.1,47.3,29.94,East,101,4.0,4.0,75,0.00,,,0.02,Wunderground v.1.15,2013-05-07 05:40:00,
2013-05-06 22:45:00,55.1,47.3,29.94,ENE,68,4.0,4.0,75,0.00,,,0.02,Wunderground v.1.15,2013-05-07 05:45:00,
2013-05-06 22:50:00,55.1,47.0,29.94,ESE,114,3.0,5.0,74,0.00,,,0.02,Wunderground v.1.15,2013-05-07 05:50:00,
2013-05-06 23:00:00,55.1,47.3,29.94,ESE,120,3.0,3.0,75,0.00,,,0.02,Wunderground v.1.15,2013-05-07 06:00:00,
2013-05-06 23:10:00,55.1,47.3,29.94,NW,306,1.0,1.0,75,0.00,,,0.02,Wunderground v.1.15,2013-05-07 06:10:00,
2013-05-06 23:15:00,55.1,47.3,29.94,ESE,108,1.0,1.0,75,0.00,,,0.02,Wunderground v.1.15,2013-05-07 06:15:00,
2013-05-06 23:20:00,55.1,47.3,29.95,ENE,72,1.0,2.0,75,0.00,,,0.02,Wunderground v.1.15,2013-05-07 06:20:00,
2013-05-06 23:25:00,55.1,47.0,29.94,ESE,119,1.0,2.0,74,0.00,,,0.02,Wunderground v.1.15,2013-05-07 06:25:00,
2013-05-06 23:35:00,55.0,47.2,29.95,East,94,2.0,3.0,75,0.00,,,0.02,Wunderground v.1.15,2013-05-07 06:35:00,
2013-05-06 23:40:00,54.9,47.1,29.95,ESE,103,2.0,2.0,75,0.00,,,0.02,Wunderground v.1.15,2013-05-07 06:40:00,
2013-05-06 23:45:00,55.0,47.2,29.95,ENE,64,2.0,2.0,75,0.00,,,0.02,Wunderground v.1.15,2013-05-07 06:45:00,
2013-05-06 23:50:00,55.0,47.2,29.95,ESE,105,2.0,3.0,75,0.00,,,0.02,Wunderground v.1.15,2013-05-07 06:50:00,
2013-05-06 23:55:00,55.0,47.2,29.95,East,85,3.0,4.0,75,0.00,,,0.02,Wunderground v.1.15,2013-05-07 06:55:00,